This is the latest recevied weather packets stored in our database for station/object TG8AKV-17. If no packets are shown the sender has not sent any weather packets the latest 10 day(s).
| Time | Temp. | Humidity | Pressure | Rain* | Wind** | Luminosity | Snow |
|---|---|---|---|---|---|---|---|
| 1777835848 | 21.67° C | 52% | 1016 hPa | 0.25 mm | - | - | - |
| 1777835248 | 21.67° C | 51% | 1016 hPa | 0 mm | - | - | - |
| 1777834046 | 21.67° C | 53% | 1016 hPa | 0 mm | - | - | - |
| 1777833445 | 21.11° C | 57% | 1016 hPa | 0.25 mm | - | - | - |
| 1777832845 | 20.56° C | 68% | 1016 hPa | 0 mm | - | - | - |
| 1777828641 | 20° C | 69% | 1017 hPa | 0 mm | - | - | - |
| 1777826838 | 20° C | 66% | 1017 hPa | 0 mm | - | - | - |
| 1777826237 | 20° C | 66% | 1017 hPa | 0 mm | - | - | - |
| 1777825635 | 19.44° C | 68% | 1017 hPa | 0 mm | - | - | - |
| 1777825035 | 18.89° C | 65% | 1017 hPa | 0 mm | - | - | - |
| 1777824434 | 17.78° C | 64% | 1017 hPa | 0 mm | - | - | - |
| 1777823233 | 17.78° C | 60% | 1017 hPa | 0 mm | - | - | - |
| 1777822632 | 17.78° C | 63% | 1017 hPa | 0 mm | - | - | - |
| 1777821431 | 16.67° C | 75% | 1017 hPa | 0 mm | - | - | - |
| 1777820230 | 15.56° C | 80% | 1017 hPa | 0 mm | - | - | - |
| 1777817227 | 14.44° C | 94% | 1017 hPa | 0 mm | - | - | - |
| 1777816626 | 14.44° C | 93% | 1017 hPa | 0 mm | - | - | - |
| 1777816026 | 14.44° C | 91% | 1017 hPa | 0 mm | - | - | - |
| 1777813624 | 11.67° C | 96% | 1018 hPa | 0 mm | - | - | - |
| 1777811821 | 11.67° C | 96% | 1018 hPa | 0 mm | - | - | - |
| 1777811220 | 11.67° C | 96% | 1018 hPa | 0 mm | - | - | - |
| 1777810620 | 12.22° C | 95% | 1018 hPa | 0 mm | - | - | - |
| 1777809418 | 12.78° C | 93% | 1018 hPa | 0 mm | - | - | - |
| 1777808818 | 12.78° C | 93% | 1018 hPa | 0 mm | - | - | - |
| 1777808217 | 12.78° C | 93% | 1018 hPa | 0 mm | - | - | - |
* Rain latest hour (hover to see other rain measurements)
** Current wind speed in m/s (hover to see current wind gust speed)